Ferry Katsuragi — JI3611 — position and weather

sailwx.info

Track history (hours):
 
Tides and Currents Weather Stations Pressure Air Temp Water Temp Dewpoint Dewpoint Depression Visibility Wind Speed Wind Dir Waves Ship Positions

Ferry Katsuragi

Last reported at 2015-Aug-29 16:34 UTC. Time now 2015-Aug-29 17:00 UTC.
Position N 34°13' E 135°09'.

Length 108 m; draft 4 m.

Type: Passenger vessel. MMSI: 431301245.

Date/timePositionNaut miles runAvg speedWind from/ knotsBaromVisibWave heightAir tempDewpointWater temp
2015-Aug-29 16:34N 34°13' E 135°09'0 0.0
2015-Aug-29 15:34N 34°13' E 135°09'7 6.8
2015-Aug-29 14:33N 34°12' E 135°00'3 0.8
2015-Aug-29 10:34N 34°13' E 135°04'4 3.8
2015-Aug-29 09:33N 34°13' E 135°09'8 2.0
2015-Aug-29 05:20N 34°10' E 134°59'810.9
2015-Aug-29 04:33N 34°13' E 135°09'6 6.5
2015-Aug-29 03:34N 34°11' E 135°01'6 1.9
2015-Aug-29 00:22N 34°09' E 134°54'1215.4
2015-Aug-28 23:33N 34°13' E 135°08'2 1.7
2015-Aug-28 22:33N 34°13' E 135°06'9 2.2
2015-Aug-28 18:28N 34°09' E 134°56'1112.1
2015-Aug-28 17:33N 34°13' E 135°09'0 0.0
2015-Aug-28 16:33N 34°13' E 135°09'0 0.0
2015-Aug-28 15:33N 34°13' E 135°09'7 6.6
2015-Aug-28 14:33N 34°11' E 135°01'3 0.6
2015-Aug-28 10:33N 34°12' E 135°04'4 4.2
2015-Aug-28 09:33N 34°13' E 135°09'12 2.9
2015-Aug-28 05:31N 34°09' E 134°55'1212.1
2015-Aug-28 04:34N 34°13' E 135°09'7 7.0
2015-Aug-28 03:32N 34°10' E 135°01'7 1.7
2015-Aug-27 23:33N 34°13' E 135°08'2 2.2
2015-Aug-27 22:34N 34°13' E 135°06'8 2.1
2015-Aug-27 18:29N 34°10' E 134°56'1111.9
2015-Aug-27 17:33N 34°13' E 135°09'0 0.0
2015-Aug-27 16:33N 34°13' E 135°09'0 0.0
2015-Aug-27 15:33N 34°13' E 135°09'6 5.9
2015-Aug-27 14:33N 34°11' E 135°02'5 1.5
2015-Aug-27 11:03N 34°10' E 134°55'714.3
2015-Aug-27 10:33N 34°12' E 135°04'4 4.1
2015-Aug-27 09:34N 34°13' E 135°09'9 2.2
2015-Aug-27 05:23N 34°11' E 134°58'911.2
2015-Aug-27 04:33N 34°13' E 135°09'8 7.3
2015-Aug-27 03:31N 34°10' E 135°00'4 1.3
2015-Aug-27 00:19N 34°09' E 134°55'1114.6
2015-Aug-26 23:34N 34°13' E 135°08'1 1.3
2015-Aug-26 22:33N 34°13' E 135°06'18 5.4
2015-Aug-26 19:13N 34°06' E 134°46'1113.5
2015-Aug-26 18:22N 34°11' E 134°58'911.0
2015-Aug-26 17:33N 34°13' E 135°09'0 0.0
2015-Aug-26 16:33N 34°13' E 135°09'0 0.0
2015-Aug-26 15:33N 34°13' E 135°09'7 6.9
2015-Aug-26 14:33N 34°11' E 135°01'10 3.2
2015-Aug-26 11:27N 34°07' E 134°49'1314.5
2015-Aug-26 10:33N 34°12' E 135°04'4 3.8
2015-Aug-26 09:33N 34°13' E 135°08'9 2.0
2015-Aug-26 05:17N 34°11' E 134°58'912.3
2015-Aug-26 04:33N 34°13' E 135°09'7 6.9
2015-Aug-26 03:33N 34°12' E 135°00'11 3.2
2015-Aug-26 00:06N 34°07' E 134°48'813.8
2015-Aug-25 23:30N 34°12' E 134°56'1415.2
2015-Aug-25 22:33N 34°23' E 135°07'5 0.3
2015-Aug-25 05:04N 34°24' E 135°13'0 0.0
2015-Aug-25 02:16N 34°24' E 135°13'0 0.0
2015-Aug-25 01:22N 34°24' E 135°13'1 0.8
2015-Aug-25 00:33N 34°24' E 135°13'1312.8
2015-Aug-24 23:33N 34°16' E 135°00'6 5.9
2015-Aug-24 22:33N 34°13' E 135°06'18 5.4
2015-Aug-24 19:11N 34°06' E 134°46'913.4
2015-Aug-24 18:31N 34°10' E 134°56'1111.7
2015-Aug-24 17:34N 34°13' E 135°09'0 0.0
2015-Aug-24 16:34N 34°13' E 135°09'0 0.0
2015-Aug-24 15:33N 34°13' E 135°09'7 7.0
2015-Aug-24 14:34N 34°10' E 135°01'10 3.1
2015-Aug-24 11:26N 34°08' E 134°49'1314.8
2015-Aug-24 10:33N 34°12' E 135°04'4 3.7
2015-Aug-24 09:34N 34°13' E 135°08'10 2.3
2015-Aug-24 05:23N 34°11' E 134°57'1012.0
2015-Aug-24 04:34N 34°13' E 135°09'7 6.6
2015-Aug-24 03:34N 34°11' E 135°01'4 1.3
2015-Aug-24 00:13N 34°08' E 134°57'1015.7
2015-Aug-23 23:33N 34°13' E 135°08'1 1.2
2015-Aug-23 22:34N 34°13' E 135°06'18 5.5
2015-Aug-23 19:12N 34°06' E 134°46'1113.7
2015-Aug-23 18:26N 34°10' E 134°57'1011.2
2015-Aug-23 17:33N 34°13' E 135°09'0 0.0
2015-Aug-23 16:33N 34°13' E 135°09'0 0.0
2015-Aug-23 15:33N 34°13' E 135°09'7 7.2
2015-Aug-23 14:33N 34°10' E 135°00'11 3.6
2015-Aug-23 11:29N 34°06' E 134°48'1415.3
2015-Aug-23 10:34N 34°12' E 135°04'4 4.2
2015-Aug-23 09:33N 34°13' E 135°09'11 2.8
2015-Aug-23 05:30N 34°10' E 134°55'1112.1
2015-Aug-23 04:33N 34°13' E 135°09'7 6.5
2015-Aug-23 03:33N 34°11' E 135°01'6 1.7
2015-Aug-23 00:17N 34°08' E 134°56'1215.9
2015-Aug-22 23:33N 34°13' E 135°08'2 2.1
2015-Aug-22 22:34N 34°13' E 135°06'20 6.1
2015-Aug-22 19:18N 34°04' E 134°44'1013.8
2015-Aug-22 18:33N 34°08' E 134°56'1211.8
2015-Aug-22 17:33N 34°13' E 135°09'0 0.0
2015-Aug-22 16:33N 34°13' E 135°09'0 0.0
2015-Aug-22 15:33N 34°13' E 135°09'7 7.4
2015-Aug-22 14:33N 34°10' E 135°00'6 1.6
2015-Aug-22 11:08N 34°07' E 134°55'915.6
2015-Aug-22 10:33N 34°12' E 135°04'4 3.9
2015-Aug-22 09:34N 34°13' E 135°09'11 2.6
2015-Aug-22 05:29N 34°09' E 134°57'1111.5
2015-Aug-22 04:34N 34°13' E 135°09'7 6.7
2015-Aug-22 03:33N 34°11' E 135°01'2 0.6
2015-Aug-22 00:07N 34°10' E 134°58'815.2
2015-Aug-21 23:33N 34°13' E 135°08'2 1.7
2015-Aug-21 22:33N 34°13' E 135°06'18 5.2
2015-Aug-21 19:08N 34°06' E 134°46'1014.1
2015-Aug-21 18:25N 34°10' E 134°57'1011.6
2015-Aug-21 17:34N 34°13' E 135°09'0 0.0
2015-Aug-21 16:34N 34°13' E 135°09'0 0.0
2015-Aug-21 15:34N 34°13' E 135°09'6 5.8
2015-Aug-21 14:33N 34°12' E 135°02'11 3.6
2015-Aug-21 11:27N 34°07' E 134°49'1314.5
2015-Aug-21 10:34N 34°12' E 135°04'4 4.0
2015-Aug-21 09:33N 34°13' E 135°09'20 6.0
2015-Aug-21 06:11N 34°06' E 134°46'1114.6
2015-Aug-21 05:27N 34°10' E 134°58'1010.9
2015-Aug-21 04:33N 34°13' E 135°09'7 6.7
2015-Aug-21 03:33N 34°13' E 135°00'4 1.0
2015-Aug-21 00:07N 34°10' E 134°58'915.3
2015-Aug-20 23:33N 34°13' E 135°08'2 1.7
2015-Aug-20 22:33N 34°13' E 135°06'8 1.9
2015-Aug-20 18:25N 34°10' E 134°57'1011.5
2015-Aug-20 17:33N 34°13' E 135°09'0 0.0
2015-Aug-20 16:33N 34°13' E 135°09'0 0.0
2015-Aug-20 15:33N 34°13' E 135°09'8 7.3
2015-Aug-20 14:32N 34°11' E 134°60'10 3.2
2015-Aug-20 11:30N 34°07' E 134°49'1314.4
2015-Aug-20 10:33N 34°12' E 135°04'4 3.9
2015-Aug-20 09:33N 34°13' E 135°09'19 5.6
2015-Aug-20 06:05N 34°07' E 134°46'1214.2
2015-Aug-20 05:16N 34°12' E 134°59'811.5
2015-Aug-20 04:33N 34°13' E 135°09'7 6.5
2015-Aug-20 03:33N 34°12' E 135°01'6 1.8
2015-Aug-20 00:21N 34°08' E 134°56'1214.8
2015-Aug-19 23:34N 34°13' E 135°09'2 1.9
2015-Aug-19 22:33N 34°13' E 135°06'8 1.9
2015-Aug-19 18:24N 34°10' E 134°57'1011.6
2015-Aug-19 17:33N 34°13' E 135°09'  
Track history (hours):
 
Tides and Currents Weather Stations Pressure Air Temp Water Temp Dewpoint Dewpoint Depression Visibility Wind Speed Wind Dir Waves Ship Positions

Ferry Katsuragi

Last reported at 2015-Aug-29 16:34 UTC. Time now 2015-Aug-29 17:00 UTC.
Position N 34°13' E 135°09'.

Length 108 m; draft 4 m.

Type: Passenger vessel. MMSI: 431301245.

Date/timePositionNaut miles runAvg speedWind from/ knotsBaromVisibWave heightAir tempDewpointWater temp
2015-Aug-29 16:34N 34°13' E 135°09'0 0.0
2015-Aug-29 15:34N 34°13' E 135°09'7 6.8
2015-Aug-29 14:33N 34°12' E 135°00'3 0.8
2015-Aug-29 10:34N 34°13' E 135°04'4 3.8
2015-Aug-29 09:33N 34°13' E 135°09'8 2.0
2015-Aug-29 05:20N 34°10' E 134°59'810.9
2015-Aug-29 04:33N 34°13' E 135°09'6 6.5
2015-Aug-29 03:34N 34°11' E 135°01'6 1.9
2015-Aug-29 00:22N 34°09' E 134°54'1215.4
2015-Aug-28 23:33N 34°13' E 135°08'2 1.7
2015-Aug-28 22:33N 34°13' E 135°06'9 2.2
2015-Aug-28 18:28N 34°09' E 134°56'1112.1
2015-Aug-28 17:33N 34°13' E 135°09'0 0.0
2015-Aug-28 16:33N 34°13' E 135°09'0 0.0
2015-Aug-28 15:33N 34°13' E 135°09'7 6.6
2015-Aug-28 14:33N 34°11' E 135°01'3 0.6
2015-Aug-28 10:33N 34°12' E 135°04'4 4.2
2015-Aug-28 09:33N 34°13' E 135°09'12 2.9
2015-Aug-28 05:31N 34°09' E 134°55'1212.1
2015-Aug-28 04:34N 34°13' E 135°09'7 7.0
2015-Aug-28 03:32N 34°10' E 135°01'7 1.7
2015-Aug-27 23:33N 34°13' E 135°08'2 2.2
2015-Aug-27 22:34N 34°13' E 135°06'8 2.1
2015-Aug-27 18:29N 34°10' E 134°56'1111.9
2015-Aug-27 17:33N 34°13' E 135°09'0 0.0
2015-Aug-27 16:33N 34°13' E 135°09'0 0.0
2015-Aug-27 15:33N 34°13' E 135°09'6 5.9
2015-Aug-27 14:33N 34°11' E 135°02'5 1.5
2015-Aug-27 11:03N 34°10' E 134°55'714.3
2015-Aug-27 10:33N 34°12' E 135°04'4 4.1
2015-Aug-27 09:34N 34°13' E 135°09'9 2.2
2015-Aug-27 05:23N 34°11' E 134°58'911.2
2015-Aug-27 04:33N 34°13' E 135°09'8 7.3
2015-Aug-27 03:31N 34°10' E 135°00'4 1.3
2015-Aug-27 00:19N 34°09' E 134°55'1114.6
2015-Aug-26 23:34N 34°13' E 135°08'1 1.3
2015-Aug-26 22:33N 34°13' E 135°06'18 5.4
2015-Aug-26 19:13N 34°06' E 134°46'1113.5
2015-Aug-26 18:22N 34°11' E 134°58'911.0
2015-Aug-26 17:33N 34°13' E 135°09'0 0.0
2015-Aug-26 16:33N 34°13' E 135°09'0 0.0
2015-Aug-26 15:33N 34°13' E 135°09'7 6.9
2015-Aug-26 14:33N 34°11' E 135°01'10 3.2
2015-Aug-26 11:27N 34°07' E 134°49'1314.5
2015-Aug-26 10:33N 34°12' E 135°04'4 3.8
2015-Aug-26 09:33N 34°13' E 135°08'9 2.0
2015-Aug-26 05:17N 34°11' E 134°58'912.3
2015-Aug-26 04:33N 34°13' E 135°09'7 6.9
2015-Aug-26 03:33N 34°12' E 135°00'11 3.2
2015-Aug-26 00:06N 34°07' E 134°48'813.8
2015-Aug-25 23:30N 34°12' E 134°56'1415.2
2015-Aug-25 22:33N 34°23' E 135°07'5 0.3
2015-Aug-25 05:04N 34°24' E 135°13'0 0.0
2015-Aug-25 02:16N 34°24' E 135°13'0 0.0
2015-Aug-25 01:22N 34°24' E 135°13'1 0.8
2015-Aug-25 00:33N 34°24' E 135°13'1312.8
2015-Aug-24 23:33N 34°16' E 135°00'6 5.9
2015-Aug-24 22:33N 34°13' E 135°06'18 5.4
2015-Aug-24 19:11N 34°06' E 134°46'913.4
2015-Aug-24 18:31N 34°10' E 134°56'1111.7
2015-Aug-24 17:34N 34°13' E 135°09'0 0.0
2015-Aug-24 16:34N 34°13' E 135°09'0 0.0
2015-Aug-24 15:33N 34°13' E 135°09'7 7.0
2015-Aug-24 14:34N 34°10' E 135°01'10 3.1
2015-Aug-24 11:26N 34°08' E 134°49'1314.8
2015-Aug-24 10:33N 34°12' E 135°04'4 3.7
2015-Aug-24 09:34N 34°13' E 135°08'10 2.3
2015-Aug-24 05:23N 34°11' E 134°57'1012.0
2015-Aug-24 04:34N 34°13' E 135°09'7 6.6
2015-Aug-24 03:34N 34°11' E 135°01'4 1.3
2015-Aug-24 00:13N 34°08' E 134°57'1015.7
2015-Aug-23 23:33N 34°13' E 135°08'1 1.2
2015-Aug-23 22:34N 34°13' E 135°06'18 5.5
2015-Aug-23 19:12N 34°06' E 134°46'1113.7
2015-Aug-23 18:26N 34°10' E 134°57'1011.2
2015-Aug-23 17:33N 34°13' E 135°09'0 0.0
2015-Aug-23 16:33N 34°13' E 135°09'0 0.0
2015-Aug-23 15:33N 34°13' E 135°09'7 7.2
2015-Aug-23 14:33N 34°10' E 135°00'11 3.6
2015-Aug-23 11:29N 34°06' E 134°48'1415.3
2015-Aug-23 10:34N 34°12' E 135°04'4 4.2
2015-Aug-23 09:33N 34°13' E 135°09'11 2.8
2015-Aug-23 05:30N 34°10' E 134°55'1112.1
2015-Aug-23 04:33N 34°13' E 135°09'7 6.5
2015-Aug-23 03:33N 34°11' E 135°01'6 1.7
2015-Aug-23 00:17N 34°08' E 134°56'1215.9
2015-Aug-22 23:33N 34°13' E 135°08'2 2.1
2015-Aug-22 22:34N 34°13' E 135°06'20 6.1
2015-Aug-22 19:18N 34°04' E 134°44'1013.8
2015-Aug-22 18:33N 34°08' E 134°56'1211.8
2015-Aug-22 17:33N 34°13' E 135°09'0 0.0
2015-Aug-22 16:33N 34°13' E 135°09'0 0.0
2015-Aug-22 15:33N 34°13' E 135°09'7 7.4
2015-Aug-22 14:33N 34°10' E 135°00'6 1.6
2015-Aug-22 11:08N 34°07' E 134°55'915.6
2015-Aug-22 10:33N 34°12' E 135°04'4 3.9
2015-Aug-22 09:34N 34°13' E 135°09'11 2.6
2015-Aug-22 05:29N 34°09' E 134°57'1111.5
2015-Aug-22 04:34N 34°13' E 135°09'7 6.7
2015-Aug-22 03:33N 34°11' E 135°01'2 0.6
2015-Aug-22 00:07N 34°10' E 134°58'815.2
2015-Aug-21 23:33N 34°13' E 135°08'2 1.7
2015-Aug-21 22:33N 34°13' E 135°06'18 5.2
2015-Aug-21 19:08N 34°06' E 134°46'1014.1
2015-Aug-21 18:25N 34°10' E 134°57'1011.6
2015-Aug-21 17:34N 34°13' E 135°09'0 0.0
2015-Aug-21 16:34N 34°13' E 135°09'0 0.0
2015-Aug-21 15:34N 34°13' E 135°09'6 5.8
2015-Aug-21 14:33N 34°12' E 135°02'11 3.6
2015-Aug-21 11:27N 34°07' E 134°49'1314.5
2015-Aug-21 10:34N 34°12' E 135°04'4 4.0
2015-Aug-21 09:33N 34°13' E 135°09'20 6.0
2015-Aug-21 06:11N 34°06' E 134°46'1114.6
2015-Aug-21 05:27N 34°10' E 134°58'1010.9
2015-Aug-21 04:33N 34°13' E 135°09'7 6.7
2015-Aug-21 03:33N 34°13' E 135°00'4 1.0
2015-Aug-21 00:07N 34°10' E 134°58'915.3
2015-Aug-20 23:33N 34°13' E 135°08'2 1.7
2015-Aug-20 22:33N 34°13' E 135°06'8 1.9
2015-Aug-20 18:25N 34°10' E 134°57'1011.5
2015-Aug-20 17:33N 34°13' E 135°09'0 0.0
2015-Aug-20 16:33N 34°13' E 135°09'0 0.0
2015-Aug-20 15:33N 34°13' E 135°09'8 7.3
2015-Aug-20 14:32N 34°11' E 134°60'10 3.2
2015-Aug-20 11:30N 34°07' E 134°49'1314.4
2015-Aug-20 10:33N 34°12' E 135°04'4 3.9
2015-Aug-20 09:33N 34°13' E 135°09'19 5.6
2015-Aug-20 06:05N 34°07' E 134°46'1214.2
2015-Aug-20 05:16N 34°12' E 134°59'811.5
2015-Aug-20 04:33N 34°13' E 135°09'7 6.5
2015-Aug-20 03:33N 34°12' E 135°01'6 1.8
2015-Aug-20 00:21N 34°08' E 134°56'1214.8
2015-Aug-19 23:34N 34°13' E 135°09'2 1.9
2015-Aug-19 22:33N 34°13' E 135°06'8 1.9
2015-Aug-19 18:24N 34°10' E 134°57'1011.6
2015-Aug-19 17:33N 34°13' E 135°09'  

Dump ship's entire track history